Главная страница
METAR-TAF:

METAR-TAF

Аэропорты :

Солт-Лейк-Сити, Юта, США

широта: 40-46-41N, долгота: 111-58-10W, высота над уровнем моря: 1288 м

Текущие метеонаблюдения

Эта сводка был подготовлена 43 минут назад, в 19:54 UTC
Ветер 9 Узел от северно-северо-западный
Температура 26°C
Влажность 24%
Давление 1019 hPa
Видимость: 16.1 км
небольшая облачность на высоте 9000 фута

METAR: KSLC 241954Z 34009KT 10SM FEW090 26/04 A3010 RMK AO2 SLP143 T02610039

Время: 14:37 (20:37 UTC)

Прогноз

Эта сводка был подготовлена 3 часа и 17 минут назад, в 17:20 UTC
Прогноз действительный с 24-го 18 UTC до 25-го 24 UTC
Ветер 10 Узел от северно-северо-западный
Видимость: 10 км
небольшая облачность на высоте 10000 фута
С 25-го 0500 UTC
Ветер 7 Узел от юго-юго-восточный
Видимость: 10 км
ясное небо
С 25-го 1900 UTC
Ветер 8 Узел от северно-северо-западный
Видимость: 10 км
небольшая облачность на высоте 10000 фута

TAF: KSLC 241720Z 2418/2524 33010KT P6SM FEW100 FM250500 16007KT P6SM SKC FM251900 33008KT P6SM FEW100

Метеонаблюдения и прогнозы для более 4000 аэропортов (сводки METAR и TAF).

Имеющиеся станции представлены на карте желтыми и красными точками.

Чтобы увидеть название станции, наведите на нее мышь.

Затем щелкните, чтобы увидеть метеонаблюдения и метеопрогнозы.

Управление картой: чтобы увеличить масштаб, щелкните зеленые кнопки с черным крестиком; чтобы уменьшить масштаб, щелкните зеленую кнопку с тире; для просмотра соседних карт щелкайте зеленые стрелки.


METAR-TAF: